createdAt,value
2018-09-19T14:18:05.162Z,94249.44
2018-09-19T14:20:33.035Z,94250.34
2018-09-19T14:23:00.711Z,94245.71
2018-09-19T14:25:28.951Z,94246.83
2018-09-19T14:27:56.714Z,94240.63
2018-09-19T14:30:24.349Z,94246.80
2018-09-19T14:32:51.950Z,94243.38
2018-09-19T14:35:19.729Z,94246.56
2018-09-19T14:37:47.604Z,94246.47
2018-09-19T14:40:15.142Z,94243.42
2018-09-19T14:42:42.799Z,94249.23
2018-09-19T14:45:10.374Z,94247.36
2018-09-19T14:47:37.926Z,94249.72
2018-09-19T14:50:05.511Z,94247.16
2018-09-19T14:52:33.089Z,94239.04
2018-09-19T14:55:00.740Z,94245.34
2018-09-19T14:57:28.674Z,94242.98
2018-09-19T14:59:57.612Z,94241.13
2018-09-19T15:02:25.547Z,94239.03
2018-09-19T15:04:53.195Z,94240.86
2018-09-19T15:07:20.759Z,94235.40
2018-09-19T15:09:48.501Z,94234.95
2018-09-19T15:12:16.078Z,94232.61
2018-09-19T15:14:43.816Z,94235.17
2018-09-19T15:17:11.366Z,94237.47
2018-09-19T15:19:38.928Z,94237.06
2018-09-19T15:22:06.819Z,94238.76
2018-09-19T15:24:34.604Z,94243.59
2018-09-19T15:27:02.166Z,94237.17
2018-09-19T15:29:29.693Z,94237.73
2018-09-19T15:31:57.546Z,94240.42
2018-09-19T15:34:25.081Z,94242.56
2018-09-19T15:36:52.672Z,94238.76
2018-09-19T15:39:20.222Z,94239.28
2018-09-19T15:41:47.779Z,94232.23
2018-09-19T15:44:15.385Z,94229.30
2018-09-19T15:46:43.139Z,94234.77
2018-09-19T15:49:10.670Z,94239.40
2018-09-19T15:51:38.201Z,94234.23
2018-09-19T15:54:05.845Z,94241.01
2018-09-19T15:56:33.381Z,94234.83
2018-09-19T15:59:00.939Z,94238.14
2018-09-19T16:01:28.691Z,94236.70
2018-09-19T16:03:56.294Z,94236.72
2018-09-19T16:06:23.852Z,94240.50
2018-09-19T16:08:51.524Z,94243.53
2018-09-19T16:11:19.096Z,94238.15
2018-09-19T16:13:46.673Z,94241.74
2018-09-19T16:16:14.301Z,94245.52
2018-09-19T16:18:41.946Z,94243.03
2018-09-19T16:21:09.527Z,94241.21
2018-09-19T16:23:37.081Z,94243.56
2018-09-19T16:26:04.638Z,94250.64
2018-09-19T16:28:32.458Z,94248.19
2018-09-19T16:31:00.017Z,94249.53
2018-09-19T16:33:27.550Z,94255.77
2018-09-19T16:35:55.165Z,94256.03
2018-09-19T16:38:22.738Z,94258.53
2018-09-19T16:40:50.278Z,94255.55
2018-09-19T16:43:17.810Z,94256.70
2018-09-19T16:45:45.613Z,94254.55
2018-09-19T16:48:13.123Z,94264.30
2018-09-19T16:50:40.691Z,94265.69
2018-09-19T16:53:08.385Z,94267.34
2018-09-19T16:55:35.870Z,94266.53
2018-09-19T16:58:03.492Z,94266.59
2018-09-19T17:00:31.079Z,94268.23
2018-09-19T17:02:58.657Z,94272.56
2018-09-19T17:05:26.272Z,94269.09
2018-09-19T17:07:53.813Z,94275.81
2018-09-19T17:10:21.366Z,94270.16
2018-09-19T17:12:49.358Z,94274.21
2018-09-19T17:15:16.988Z,94275.88
2018-09-19T17:17:44.485Z,94278.57
2018-09-19T17:20:12.420Z,94276.45
2018-09-19T17:22:39.993Z,94271.63
2018-09-19T17:25:07.623Z,94271.37
2018-09-19T17:27:35.467Z,94278.92
2018-09-19T17:30:03.097Z,94284.04
2018-09-19T17:32:30.657Z,94284.56
2018-09-19T17:34:58.597Z,94286.70
2018-09-19T17:37:26.369Z,94282.16
2018-09-19T17:39:53.975Z,94288.61
2018-09-19T17:42:21.616Z,94285.66
2018-09-19T17:44:49.175Z,94291.00
2018-09-19T17:47:16.861Z,94290.20
2018-09-19T17:49:44.485Z,94289.39
2018-09-19T17:52:12.106Z,94286.98
2018-09-19T17:54:39.881Z,94292.27
2018-09-19T17:57:07.497Z,94296.28
2018-09-19T17:59:35.071Z,94292.27
2018-09-19T18:02:02.643Z,94294.06
2018-09-19T18:04:30.447Z,94298.76
2018-09-19T18:06:58.014Z,94301.39
2018-09-19T18:09:25.578Z,94308.72
2018-09-19T18:11:53.421Z,94306.83
2018-09-19T18:14:21.000Z,94308.60
2018-09-19T18:16:48.600Z,94306.33
2018-09-19T18:19:16.513Z,94317.55
2018-09-19T18:21:44.082Z,94316.59
2018-09-19T18:24:11.651Z,94312.92
2018-09-19T18:26:39.208Z,94314.84
2018-09-19T18:29:06.776Z,94318.54
2018-09-19T18:31:34.606Z,94314.98
2018-09-19T18:34:02.199Z,94317.27
2018-09-19T18:36:29.826Z,94314.21
2018-09-19T18:38:57.544Z,94321.03
2018-09-19T18:41:25.139Z,94320.94
2018-09-19T18:43:52.679Z,94326.64
2018-09-19T18:46:20.302Z,94323.47
2018-09-19T18:48:47.894Z,94327.61
2018-09-19T18:51:15.459Z,94329.09
2018-09-19T18:53:43.221Z,94330.53
2018-09-19T18:56:10.868Z,94328.28
2018-09-19T18:58:38.683Z,94334.59
2018-09-19T19:01:06.311Z,94335.08
2018-09-19T19:03:33.844Z,94330.14
2018-09-19T19:06:01.453Z,94334.91
2018-09-19T19:08:29.327Z,94335.34
2018-09-19T19:10:56.870Z,94337.50
2018-09-19T19:13:24.419Z,94337.16
2018-09-19T19:15:52.017Z,94338.48
2018-09-19T19:18:19.703Z,94344.67
2018-09-19T19:20:47.323Z,94351.96
2018-09-19T19:23:14.884Z,94341.73
2018-09-19T19:25:43.059Z,94342.91
2018-09-19T19:28:10.648Z,94346.84
2018-09-19T19:30:38.230Z,94348.86
2018-09-19T19:33:05.833Z,94342.30
2018-09-19T19:35:33.439Z,94342.72
2018-09-19T19:38:01.051Z,94342.56
2018-09-19T19:40:28.603Z,94348.36
2018-09-19T19:42:56.141Z,94354.45
2018-09-19T19:45:23.724Z,94354.28
2018-09-19T19:47:51.319Z,94351.88
2018-09-19T19:50:19.131Z,94349.62
2018-09-19T19:52:46.786Z,94348.48
2018-09-19T19:55:14.404Z,94345.53
2018-09-19T19:57:42.017Z,94347.30
2018-09-19T20:00:09.634Z,94346.48
2018-09-19T20:02:37.194Z,94349.15
2018-09-19T20:05:04.869Z,94350.77
2018-09-19T20:07:32.409Z,94346.39
2018-09-19T20:09:59.946Z,94336.64
2018-09-19T20:12:27.542Z,94343.82
2018-09-19T20:14:55.282Z,94339.45
2018-09-19T20:17:22.873Z,94348.25
2018-09-19T20:19:50.454Z,94350.19
2018-09-19T20:22:17.994Z,94346.48
2018-09-19T20:24:45.581Z,94345.91
2018-09-19T20:27:13.226Z,94347.44
2018-09-19T20:29:40.814Z,94349.52
2018-09-19T20:32:08.331Z,94348.38
2018-09-19T20:34:36.149Z,94342.40
2018-09-19T20:37:03.703Z,94350.19
2018-09-19T20:39:31.222Z,94347.44
2018-09-19T20:41:58.766Z,94348.48
2018-09-19T20:44:26.287Z,94344.47
2018-09-19T20:46:53.888Z,94344.27
2018-09-19T20:49:21.405Z,94344.77
2018-09-19T20:51:48.972Z,94344.27
2018-09-19T20:54:16.534Z,94339.60
2018-09-19T20:56:44.090Z,94343.34
2018-09-19T20:59:11.630Z,94338.27
2018-09-19T21:01:39.183Z,94342.16
2018-09-19T21:04:06.752Z,94338.76
2018-09-19T21:06:34.283Z,94345.61
2018-09-19T21:09:02.076Z,94345.80
2018-09-19T21:11:29.718Z,94348.01
2018-09-19T21:13:57.242Z,94351.48
2018-09-19T21:16:24.781Z,94345.61
2018-09-19T21:18:52.406Z,94350.92
2018-09-19T21:21:19.989Z,94347.23
2018-09-19T21:23:47.509Z,94354.34
2018-09-19T21:26:15.041Z,94351.67
2018-09-19T21:28:42.629Z,94353.33
2018-09-19T21:31:10.146Z,94354.55
2018-09-19T21:33:37.700Z,94359.38
2018-09-19T21:36:05.253Z,94364.41
2018-09-19T21:38:32.791Z,94358.23
2018-09-19T21:41:00.494Z,94362.53
2018-09-19T21:43:28.013Z,94359.88
2018-09-19T21:45:55.758Z,94357.44
2018-09-19T21:48:23.287Z,94351.94
2018-09-19T21:50:50.811Z,94351.09
2018-09-19T21:53:18.354Z,94355.81
2018-09-19T21:55:46.589Z,94355.92
2018-09-19T21:58:14.147Z,94358.02
2018-09-19T22:00:41.919Z,94357.33
2018-09-19T22:03:09.434Z,94352.94
2018-09-19T22:05:36.967Z,94350.61
2018-09-19T22:08:04.505Z,94360.68
2018-09-19T22:10:32.046Z,94352.70
2018-09-19T22:12:59.615Z,94356.98
2018-09-19T22:15:27.163Z,94346.91
2018-09-19T22:17:54.689Z,94346.36
2018-09-19T22:20:22.259Z,94341.86
2018-09-19T22:22:49.825Z,94343.34
2018-09-19T22:25:17.362Z,94337.50
2018-09-19T22:27:44.942Z,94337.09
2018-09-19T22:30:12.454Z,94336.20
2018-09-19T22:32:40.011Z,94334.75
2018-09-19T22:35:07.562Z,94335.31
2018-09-19T22:37:35.110Z,94336.20
2018-09-19T22:40:02.675Z,94335.49
2018-09-19T22:42:30.243Z,94335.08
2018-09-19T22:44:58.288Z,94336.58
2018-09-19T22:47:25.838Z,94338.64
2018-09-19T22:49:53.353Z,94340.71
2018-09-19T22:52:20.903Z,94342.81
2018-09-19T22:54:48.525Z,94339.44
2018-09-19T22:57:16.198Z,94338.70
2018-09-19T22:59:43.733Z,94331.34
2018-09-19T23:02:11.250Z,94331.27
2018-09-19T23:04:38.793Z,94331.02
2018-09-19T23:07:06.390Z,94330.28
2018-09-19T23:09:34.401Z,94330.63
2018-09-19T23:12:01.908Z,94331.34
2018-09-19T23:14:29.455Z,94331.00
2018-09-19T23:16:56.991Z,94332.25
2018-09-19T23:19:24.534Z,94330.25
2018-09-19T23:21:52.141Z,94331.09
2018-09-19T23:24:19.677Z,94336.13
2018-09-19T23:26:47.242Z,94339.42
2018-09-19T23:29:14.826Z,94334.24
2018-09-19T23:31:42.374Z,94339.75
2018-09-19T23:34:09.891Z,94342.54
2018-09-19T23:36:37.407Z,94341.21
2018-09-19T23:39:06.232Z,94339.59
2018-09-19T23:41:33.771Z,94337.40
2018-09-19T23:44:01.302Z,94342.06
2018-09-19T23:46:29.215Z,94343.86
2018-09-19T23:48:56.747Z,94339.23
2018-09-19T23:51:24.267Z,94332.46
2018-09-19T23:53:51.814Z,94343.75
2018-09-19T23:56:19.338Z,94341.96
2018-09-19T23:58:47.113Z,94339.61
